sensor_id;sensor_type;location;lat;lon;timestamp;P1;durP1;ratioP1;P2;durP2;ratioP2
76437;SDS011;65273;43.198;0.118;2023-04-25T00:01:22;2.40;;;0.80;;
76437;SDS011;65273;43.198;0.118;2023-04-25T00:03:48;1.90;;;0.90;;
76437;SDS011;65273;43.198;0.118;2023-04-25T00:06:14;1.27;;;1.17;;
76437;SDS011;65273;43.198;0.118;2023-04-25T00:08:40;2.03;;;1.00;;
76437;SDS011;65273;43.198;0.118;2023-04-25T00:11:06;3.13;;;1.00;;
76437;SDS011;65273;43.198;0.118;2023-04-25T00:13:31;3.20;;;1.33;;
76437;SDS011;65273;43.198;0.118;2023-04-25T00:15:57;1.48;;;1.15;;
76437;SDS011;65273;43.198;0.118;2023-04-25T00:18:23;2.00;;;1.10;;
76437;SDS011;65273;43.198;0.118;2023-04-25T00:20:49;1.13;;;1.10;;
76437;SDS011;65273;43.198;0.118;2023-04-25T00:23:15;1.85;;;1.20;;
76437;SDS011;65273;43.198;0.118;2023-04-25T00:25:42;4.43;;;1.48;;
76437;SDS011;65273;43.198;0.118;2023-04-25T00:28:11;1.15;;;1.05;;
76437;SDS011;65273;43.198;0.118;2023-04-25T00:30:37;0.93;;;0.93;;
76437;SDS011;65273;43.198;0.118;2023-04-25T00:33:02;2.65;;;1.40;;
76437;SDS011;65273;43.198;0.118;2023-04-25T00:35:28;2.97;;;1.38;;
76437;SDS011;65273;43.198;0.118;2023-04-25T00:37:53;2.13;;;1.25;;
76437;SDS011;65273;43.198;0.118;2023-04-25T00:40:19;1.65;;;1.40;;
76437;SDS011;65273;43.198;0.118;2023-04-25T00:42:45;2.05;;;1.40;;
76437;SDS011;65273;43.198;0.118;2023-04-25T00:45:12;2.72;;;1.70;;
76437;SDS011;65273;43.198;0.118;2023-04-25T00:47:41;2.40;;;1.38;;
76437;SDS011;65273;43.198;0.118;2023-04-25T00:50:07;1.20;;;1.10;;
76437;SDS011;65273;43.198;0.118;2023-04-25T00:52:34;2.78;;;1.40;;
76437;SDS011;65273;43.198;0.118;2023-04-25T00:54:59;4.35;;;1.60;;
76437;SDS011;65273;43.198;0.118;2023-04-25T00:57:25;1.30;;;1.20;;
76437;SDS011;65273;43.198;0.118;2023-04-25T00:59:51;4.60;;;1.27;;
76437;SDS011;65273;43.198;0.118;2023-04-25T01:02:17;5.32;;;1.30;;
76437;SDS011;65273;43.198;0.118;2023-04-25T01:04:43;4.00;;;1.45;;
76437;SDS011;65273;43.198;0.118;2023-04-25T01:07:09;1.33;;;1.23;;
76437;SDS011;65273;43.198;0.118;2023-04-25T01:09:35;3.88;;;1.50;;
76437;SDS011;65273;43.198;0.118;2023-04-25T01:12:00;2.53;;;1.52;;
76437;SDS011;65273;43.198;0.118;2023-04-25T01:14:26;3.15;;;1.48;;
76437;SDS011;65273;43.198;0.118;2023-04-25T01:16:52;2.75;;;1.60;;
76437;SDS011;65273;43.198;0.118;2023-04-25T01:19:18;3.05;;;1.40;;
76437;SDS011;65273;43.198;0.118;2023-04-25T01:21:44;5.65;;;1.75;;
76437;SDS011;65273;43.198;0.118;2023-04-25T01:24:10;2.90;;;1.45;;
76437;SDS011;65273;43.198;0.118;2023-04-25T01:26:36;3.88;;;1.50;;
76437;SDS011;65273;43.198;0.118;2023-04-25T01:29:01;3.40;;;1.60;;
76437;SDS011;65273;43.198;0.118;2023-04-25T01:31:29;1.75;;;1.58;;
76437;SDS011;65273;43.198;0.118;2023-04-25T01:33:55;2.35;;;1.73;;
76437;SDS011;65273;43.198;0.118;2023-04-25T01:36:20;2.92;;;1.30;;
76437;SDS011;65273;43.198;0.118;2023-04-25T01:38:46;3.55;;;1.35;;
76437;SDS011;65273;43.198;0.118;2023-04-25T01:41:12;4.70;;;1.67;;
76437;SDS011;65273;43.198;0.118;2023-04-25T01:43:39;4.35;;;1.63;;
76437;SDS011;65273;43.198;0.118;2023-04-25T01:46:04;5.07;;;1.50;;
76437;SDS011;65273;43.198;0.118;2023-04-25T01:48:30;1.38;;;1.20;;
76437;SDS011;65273;43.198;0.118;2023-04-25T01:50:55;2.60;;;1.38;;
76437;SDS011;65273;43.198;0.118;2023-04-25T01:53:21;1.83;;;1.40;;
76437;SDS011;65273;43.198;0.118;2023-04-25T01:55:47;3.60;;;1.60;;
76437;SDS011;65273;43.198;0.118;2023-04-25T01:58:13;2.58;;;1.60;;
76437;SDS011;65273;43.198;0.118;2023-04-25T02:00:38;5.85;;;1.50;;
76437;SDS011;65273;43.198;0.118;2023-04-25T02:03:05;2.40;;;1.30;;
76437;SDS011;65273;43.198;0.118;2023-04-25T02:05:35;2.03;;;1.40;;
76437;SDS011;65273;43.198;0.118;2023-04-25T02:08:01;2.53;;;1.30;;
76437;SDS011;65273;43.198;0.118;2023-04-25T02:10:28;3.03;;;1.25;;
76437;SDS011;65273;43.198;0.118;2023-04-25T02:12:53;2.25;;;1.25;;
76437;SDS011;65273;43.198;0.118;2023-04-25T02:15:19;2.47;;;1.35;;
76437;SDS011;65273;43.198;0.118;2023-04-25T02:17:44;1.88;;;1.50;;
76437;SDS011;65273;43.198;0.118;2023-04-25T02:20:10;4.40;;;1.30;;
76437;SDS011;65273;43.198;0.118;2023-04-25T02:22:36;2.75;;;1.40;;
76437;SDS011;65273;43.198;0.118;2023-04-25T02:25:02;1.75;;;1.25;;
76437;SDS011;65273;43.198;0.118;2023-04-25T02:27:29;6.53;;;1.40;;
76437;SDS011;65273;43.198;0.118;2023-04-25T02:29:55;2.40;;;1.23;;
76437;SDS011;65273;43.198;0.118;2023-04-25T02:32:20;3.13;;;1.75;;
76437;SDS011;65273;43.198;0.118;2023-04-25T02:34:46;1.85;;;1.42;;
76437;SDS011;65273;43.198;0.118;2023-04-25T02:37:11;2.28;;;1.23;;
76437;SDS011;65273;43.198;0.118;2023-04-25T02:39:37;3.17;;;1.60;;
76437;SDS011;65273;43.198;0.118;2023-04-25T02:42:02;1.33;;;1.17;;
76437;SDS011;65273;43.198;0.118;2023-04-25T02:44:28;2.20;;;1.60;;
76437;SDS011;65273;43.198;0.118;2023-04-25T02:46:53;1.45;;;1.35;;
76437;SDS011;65273;43.198;0.118;2023-04-25T02:49:19;1.73;;;1.35;;
76437;SDS011;65273;43.198;0.118;2023-04-25T02:51:44;1.60;;;1.50;;
76437;SDS011;65273;43.198;0.118;2023-04-25T02:54:10;2.13;;;1.30;;
76437;SDS011;65273;43.198;0.118;2023-04-25T02:56:35;2.28;;;1.20;;
76437;SDS011;65273;43.198;0.118;2023-04-25T02:59:01;3.38;;;1.35;;
76437;SDS011;65273;43.198;0.118;2023-04-25T03:01:27;1.17;;;1.00;;
76437;SDS011;65273;43.198;0.118;2023-04-25T03:03:53;1.33;;;1.20;;
76437;SDS011;65273;43.198;0.118;2023-04-25T03:06:18;1.30;;;1.20;;
76437;SDS011;65273;43.198;0.118;2023-04-25T03:08:43;5.40;;;1.50;;
76437;SDS011;65273;43.198;0.118;2023-04-25T03:11:09;2.85;;;1.38;;
76437;SDS011;65273;43.198;0.118;2023-04-25T03:13:35;2.92;;;1.63;;
76437;SDS011;65273;43.198;0.118;2023-04-25T03:16:00;2.10;;;1.40;;
76437;SDS011;65273;43.198;0.118;2023-04-25T03:18:26;1.48;;;1.30;;
76437;SDS011;65273;43.198;0.118;2023-04-25T03:20:51;1.92;;;1.38;;
76437;SDS011;65273;43.198;0.118;2023-04-25T03:23:17;4.03;;;1.50;;
76437;SDS011;65273;43.198;0.118;2023-04-25T03:25:42;2.60;;;1.40;;
76437;SDS011;65273;43.198;0.118;2023-04-25T03:28:08;3.95;;;1.30;;
76437;SDS011;65273;43.198;0.118;2023-04-25T03:30:33;1.70;;;1.23;;
76437;SDS011;65273;43.198;0.118;2023-04-25T03:32:59;1.40;;;1.30;;
76437;SDS011;65273;43.198;0.118;2023-04-25T03:35:24;1.52;;;1.17;;
76437;SDS011;65273;43.198;0.118;2023-04-25T03:37:50;1.60;;;1.30;;
76437;SDS011;65273;43.198;0.118;2023-04-25T03:40:15;2.03;;;1.23;;
76437;SDS011;65273;43.198;0.118;2023-04-25T03:42:40;1.25;;;1.15;;
76437;SDS011;65273;43.198;0.118;2023-04-25T03:45:06;1.48;;;1.38;;
76437;SDS011;65273;43.198;0.118;2023-04-25T03:47:32;1.48;;;1.33;;
76437;SDS011;65273;43.198;0.118;2023-04-25T03:49:58;1.15;;;1.08;;
76437;SDS011;65273;43.198;0.118;2023-04-25T03:52:25;3.88;;;1.50;;
76437;SDS011;65273;43.198;0.118;2023-04-25T03:54:51;2.40;;;1.17;;
76437;SDS011;65273;43.198;0.118;2023-04-25T03:57:16;1.63;;;1.27;;
76437;SDS011;65273;43.198;0.118;2023-04-25T03:59:41;1.10;;;1.00;;
76437;SDS011;65273;43.198;0.118;2023-04-25T04:02:07;1.00;;;1.00;;
76437;SDS011;65273;43.198;0.118;2023-04-25T04:04:32;1.40;;;1.30;;
76437;SDS011;65273;43.198;0.118;2023-04-25T04:06:58;1.25;;;1.00;;
76437;SDS011;65273;43.198;0.118;2023-04-25T04:09:23;1.17;;;1.13;;
76437;SDS011;65273;43.198;0.118;2023-04-25T04:11:49;1.30;;;1.00;;
76437;SDS011;65273;43.198;0.118;2023-04-25T04:14:14;1.05;;;0.95;;
76437;SDS011;65273;43.198;0.118;2023-04-25T04:16:40;0.80;;;0.80;;
76437;SDS011;65273;43.198;0.118;2023-04-25T04:19:06;1.92;;;1.00;;
76437;SDS011;65273;43.198;0.118;2023-04-25T04:21:32;1.55;;;0.85;;
76437;SDS011;65273;43.198;0.118;2023-04-25T04:23:58;1.20;;;0.90;;
76437;SDS011;65273;43.198;0.118;2023-04-25T04:26:25;1.73;;;0.80;;
76437;SDS011;65273;43.198;0.118;2023-04-25T04:28:51;1.20;;;0.90;;
76437;SDS011;65273;43.198;0.118;2023-04-25T04:31:17;0.82;;;0.82;;
76437;SDS011;65273;43.198;0.118;2023-04-25T04:33:44;0.80;;;0.80;;
76437;SDS011;65273;43.198;0.118;2023-04-25T04:36:11;1.08;;;0.80;;
76437;SDS011;65273;43.198;0.118;2023-04-25T04:38:36;0.65;;;0.60;;
76437;SDS011;65273;43.198;0.118;2023-04-25T04:41:02;1.65;;;0.60;;
76437;SDS011;65273;43.198;0.118;2023-04-25T04:43:28;1.75;;;0.80;;
76437;SDS011;65273;43.198;0.118;2023-04-25T04:45:54;1.13;;;0.80;;
76437;SDS011;65273;43.198;0.118;2023-04-25T04:48:21;0.70;;;0.70;;
76437;SDS011;65273;43.198;0.118;2023-04-25T04:50:47;1.27;;;0.70;;
76437;SDS011;65273;43.198;0.118;2023-04-25T04:53:13;0.85;;;0.60;;
76437;SDS011;65273;43.198;0.118;2023-04-25T04:55:38;4.30;;;0.70;;
76437;SDS011;65273;43.198;0.118;2023-04-25T04:58:06;0.52;;;0.50;;
76437;SDS011;65273;43.198;0.118;2023-04-25T05:00:32;0.52;;;0.52;;
76437;SDS011;65273;43.198;0.118;2023-04-25T05:02:58;0.75;;;0.75;;
76437;SDS011;65273;43.198;0.118;2023-04-25T05:05:23;0.68;;;0.68;;
76437;SDS011;65273;43.198;0.118;2023-04-25T05:07:49;0.63;;;0.60;;
76437;SDS011;65273;43.198;0.118;2023-04-25T05:10:14;1.00;;;0.60;;
76437;SDS011;65273;43.198;0.118;2023-04-25T05:12:40;1.55;;;0.70;;
76437;SDS011;65273;43.198;0.118;2023-04-25T05:15:06;1.65;;;0.60;;
76437;SDS011;65273;43.198;0.118;2023-04-25T05:17:31;1.83;;;0.70;;
76437;SDS011;65273;43.198;0.118;2023-04-25T05:19:57;1.83;;;0.70;;
76437;SDS011;65273;43.198;0.118;2023-04-25T05:22:23;0.70;;;0.70;;
76437;SDS011;65273;43.198;0.118;2023-04-25T05:24:49;0.55;;;0.55;;
76437;SDS011;65273;43.198;0.118;2023-04-25T05:27:16;0.80;;;0.68;;
76437;SDS011;65273;43.198;0.118;2023-04-25T05:29:42;0.60;;;0.60;;
76437;SDS011;65273;43.198;0.118;2023-04-25T05:32:08;0.60;;;0.60;;
76437;SDS011;65273;43.198;0.118;2023-04-25T05:34:34;0.60;;;0.60;;
76437;SDS011;65273;43.198;0.118;2023-04-25T05:37:00;0.70;;;0.70;;
76437;SDS011;65273;43.198;0.118;2023-04-25T05:39:26;1.65;;;0.70;;
76437;SDS011;65273;43.198;0.118;2023-04-25T05:41:51;0.52;;;0.52;;
76437;SDS011;65273;43.198;0.118;2023-04-25T05:44:17;0.50;;;0.50;;
76437;SDS011;65273;43.198;0.118;2023-04-25T05:46:42;0.57;;;0.57;;
76437;SDS011;65273;43.198;0.118;2023-04-25T05:49:08;0.70;;;0.70;;
76437;SDS011;65273;43.198;0.118;2023-04-25T05:51:33;2.83;;;0.65;;
76437;SDS011;65273;43.198;0.118;2023-04-25T05:53:59;3.17;;;0.80;;
76437;SDS011;65273;43.198;0.118;2023-04-25T05:56:24;1.38;;;0.60;;
76437;SDS011;65273;43.198;0.118;2023-04-25T05:58:50;1.20;;;0.60;;
76437;SDS011;65273;43.198;0.118;2023-04-25T06:01:16;0.68;;;0.60;;
76437;SDS011;65273;43.198;0.118;2023-04-25T06:03:41;0.75;;;0.70;;
76437;SDS011;65273;43.198;0.118;2023-04-25T06:06:08;0.57;;;0.57;;
76437;SDS011;65273;43.198;0.118;2023-04-25T06:08:34;0.52;;;0.52;;
76437;SDS011;65273;43.198;0.118;2023-04-25T06:10:59;0.43;;;0.43;;
76437;SDS011;65273;43.198;0.118;2023-04-25T06:13:25;0.50;;;0.50;;
76437;SDS011;65273;43.198;0.118;2023-04-25T06:15:50;0.80;;;0.50;;
76437;SDS011;65273;43.198;0.118;2023-04-25T06:18:16;0.65;;;0.65;;
76437;SDS011;65273;43.198;0.118;2023-04-25T06:20:41;1.75;;;0.60;;
76437;SDS011;65273;43.198;0.118;2023-04-25T06:23:07;0.60;;;0.50;;
76437;SDS011;65273;43.198;0.118;2023-04-25T06:25:32;2.38;;;0.57;;
76437;SDS011;65273;43.198;0.118;2023-04-25T06:27:57;0.50;;;0.50;;
76437;SDS011;65273;43.198;0.118;2023-04-25T06:30:23;0.40;;;0.40;;
76437;SDS011;65273;43.198;0.118;2023-04-25T06:32:50;0.45;;;0.45;;
76437;SDS011;65273;43.198;0.118;2023-04-25T06:35:16;0.60;;;0.60;;
76437;SDS011;65273;43.198;0.118;2023-04-25T06:37:42;1.33;;;0.50;;
76437;SDS011;65273;43.198;0.118;2023-04-25T06:40:07;0.50;;;0.50;;
76437;SDS011;65273;43.198;0.118;2023-04-25T06:42:33;1.98;;;0.63;;
76437;SDS011;65273;43.198;0.118;2023-04-25T06:44:59;0.60;;;0.60;;
76437;SDS011;65273;43.198;0.118;2023-04-25T06:47:24;1.08;;;0.50;;
76437;SDS011;65273;43.198;0.118;2023-04-25T06:49:49;0.40;;;0.40;;
76437;SDS011;65273;43.198;0.118;2023-04-25T06:52:15;2.10;;;0.60;;
76437;SDS011;65273;43.198;0.118;2023-04-25T06:54:42;0.40;;;0.40;;
76437;SDS011;65273;43.198;0.118;2023-04-25T06:57:08;0.60;;;0.60;;
76437;SDS011;65273;43.198;0.118;2023-04-25T06:59:33;0.82;;;0.40;;
76437;SDS011;65273;43.198;0.118;2023-04-25T07:01:59;0.68;;;0.68;;
76437;SDS011;65273;43.198;0.118;2023-04-25T07:04:24;0.52;;;0.52;;
76437;SDS011;65273;43.198;0.118;2023-04-25T07:06:50;1.20;;;0.63;;
76437;SDS011;65273;43.198;0.118;2023-04-25T07:09:16;3.70;;;0.70;;
76437;SDS011;65273;43.198;0.118;2023-04-25T07:11:41;1.52;;;0.88;;
76437;SDS011;65273;43.198;0.118;2023-04-25T07:14:07;1.95;;;0.88;;
76437;SDS011;65273;43.198;0.118;2023-04-25T07:16:32;1.17;;;1.08;;
76437;SDS011;65273;43.198;0.118;2023-04-25T07:18:57;2.50;;;1.20;;
76437;SDS011;65273;43.198;0.118;2023-04-25T07:21:24;3.97;;;0.98;;
76437;SDS011;65273;43.198;0.118;2023-04-25T07:23:50;4.50;;;0.80;;
76437;SDS011;65273;43.198;0.118;2023-04-25T07:26:16;0.75;;;0.75;;
76437;SDS011;65273;43.198;0.118;2023-04-25T07:28:41;3.10;;;0.95;;
76437;SDS011;65273;43.198;0.118;2023-04-25T07:31:07;1.02;;;0.73;;
76437;SDS011;65273;43.198;0.118;2023-04-25T07:33:33;2.15;;;0.80;;
76437;SDS011;65273;43.198;0.118;2023-04-25T07:35:58;1.20;;;0.68;;
76437;SDS011;65273;43.198;0.118;2023-04-25T07:38:24;0.75;;;0.65;;
76437;SDS011;65273;43.198;0.118;2023-04-25T07:40:49;4.00;;;0.80;;
76437;SDS011;65273;43.198;0.118;2023-04-25T07:43:15;1.13;;;0.70;;
76437;SDS011;65273;43.198;0.118;2023-04-25T07:45:45;5.25;;;0.80;;
76437;SDS011;65273;43.198;0.118;2023-04-25T07:48:11;1.98;;;1.15;;
76437;SDS011;65273;43.198;0.118;2023-04-25T07:50:41;2.50;;;1.00;;
76437;SDS011;65273;43.198;0.118;2023-04-25T07:53:06;1.15;;;0.80;;
76437;SDS011;65273;43.198;0.118;2023-04-25T07:55:32;1.95;;;1.05;;
76437;SDS011;65273;43.198;0.118;2023-04-25T07:57:57;1.00;;;0.90;;
76437;SDS011;65273;43.198;0.118;2023-04-25T08:00:23;4.60;;;0.90;;
76437;SDS011;65273;43.198;0.118;2023-04-25T08:02:48;2.08;;;0.85;;
76437;SDS011;65273;43.198;0.118;2023-04-25T08:05:15;1.75;;;0.90;;
76437;SDS011;65273;43.198;0.118;2023-04-25T08:07:41;0.57;;;0.57;;
76437;SDS011;65273;43.198;0.118;2023-04-25T08:10:07;2.33;;;0.80;;
76437;SDS011;65273;43.198;0.118;2023-04-25T08:12:33;2.28;;;0.73;;
76437;SDS011;65273;43.198;0.118;2023-04-25T08:14:58;0.43;;;0.32;;
76437;SDS011;65273;43.198;0.118;2023-04-25T08:17:24;0.90;;;0.50;;
76437;SDS011;65273;43.198;0.118;2023-04-25T08:19:49;0.55;;;0.55;;
76437;SDS011;65273;43.198;0.118;2023-04-25T08:22:15;0.68;;;0.40;;
76437;SDS011;65273;43.198;0.118;2023-04-25T08:24:41;2.05;;;0.30;;
76437;SDS011;65273;43.198;0.118;2023-04-25T08:27:06;3.65;;;1.52;;
76437;SDS011;65273;43.198;0.118;2023-04-25T08:29:32;2.30;;;0.77;;
76437;SDS011;65273;43.198;0.118;2023-04-25T08:31:58;1.70;;;0.63;;
76437;SDS011;65273;43.198;0.118;2023-04-25T08:34:24;0.40;;;0.40;;
76437;SDS011;65273;43.198;0.118;2023-04-25T08:36:50;0.70;;;0.50;;
76437;SDS011;65273;43.198;0.118;2023-04-25T08:39:16;0.35;;;0.35;;
76437;SDS011;65273;43.198;0.118;2023-04-25T08:41:41;0.85;;;0.50;;
76437;SDS011;65273;43.198;0.118;2023-04-25T08:44:07;3.78;;;0.50;;
76437;SDS011;65273;43.198;0.118;2023-04-25T08:46:35;0.50;;;0.50;;
76437;SDS011;65273;43.198;0.118;2023-04-25T08:49:04;0.77;;;0.28;;
76437;SDS011;65273;43.198;0.118;2023-04-25T08:51:33;1.88;;;0.32;;
76437;SDS011;65273;43.198;0.118;2023-04-25T08:54:11;0.30;;;0.30;;
76437;SDS011;65273;43.198;0.118;2023-04-25T08:56:41;0.63;;;0.60;;
76437;SDS011;65273;43.198;0.118;2023-04-25T08:59:13;0.22;;;0.22;;
76437;SDS011;65273;43.198;0.118;2023-04-25T09:01:39;0.30;;;0.30;;
76437;SDS011;65273;43.198;0.118;2023-04-25T09:04:05;0.80;;;0.40;;
76437;SDS011;65273;43.198;0.118;2023-04-25T09:06:31;1.65;;;0.57;;
76437;SDS011;65273;43.198;0.118;2023-04-25T09:09:06;1.30;;;0.50;;
76437;SDS011;65273;43.198;0.118;2023-04-25T09:11:33;0.30;;;0.30;;
76437;SDS011;65273;43.198;0.118;2023-04-25T09:14:14;0.30;;;0.30;;
76437;SDS011;65273;43.198;0.118;2023-04-25T09:19:25;0.40;;;0.40;;
76437;SDS011;65273;43.198;0.118;2023-04-25T09:21:58;1.30;;;0.30;;
76437;SDS011;65273;43.198;0.118;2023-04-25T09:24:39;0.40;;;0.40;;
76437;SDS011;65273;43.198;0.118;2023-04-25T09:27:08;0.32;;;0.32;;
76437;SDS011;65273;43.198;0.118;2023-04-25T09:29:35;0.35;;;0.30;;
76437;SDS011;65273;43.198;0.118;2023-04-25T09:32:18;0.73;;;0.20;;
76437;SDS011;65273;43.198;0.118;2023-04-25T09:34:48;1.95;;;0.20;;
76437;SDS011;65273;43.198;0.118;2023-04-25T09:37:18;0.47;;;0.25;;
76437;SDS011;65273;43.198;0.118;2023-04-25T09:39:45;0.22;;;0.22;;
76437;SDS011;65273;43.198;0.118;2023-04-25T09:42:15;0.52;;;0.20;;
76437;SDS011;65273;43.198;0.118;2023-04-25T09:44:42;0.25;;;0.20;;
76437;SDS011;65273;43.198;0.118;2023-04-25T09:47:10;0.40;;;0.38;;
76437;SDS011;65273;43.198;0.118;2023-04-25T09:49:38;0.50;;;0.45;;
76437;SDS011;65273;43.198;0.118;2023-04-25T09:52:07;0.30;;;0.30;;
76437;SDS011;65273;43.198;0.118;2023-04-25T09:54:33;1.45;;;0.45;;
76437;SDS011;65273;43.198;0.118;2023-04-25T09:56:59;1.58;;;0.60;;
76437;SDS011;65273;43.198;0.118;2023-04-25T09:59:45;0.30;;;0.30;;
76437;SDS011;65273;43.198;0.118;2023-04-25T10:02:13;0.20;;;0.20;;
76437;SDS011;65273;43.198;0.118;2023-04-25T10:04:40;0.40;;;0.40;;
76437;SDS011;65273;43.198;0.118;2023-04-25T10:07:06;0.20;;;0.20;;
76437;SDS011;65273;43.198;0.118;2023-04-25T10:09:33;0.20;;;0.20;;
76437;SDS011;65273;43.198;0.118;2023-04-25T10:11:59;0.30;;;0.30;;
76437;SDS011;65273;43.198;0.118;2023-04-25T10:14:25;0.28;;;0.28;;
76437;SDS011;65273;43.198;0.118;2023-04-25T10:16:51;0.20;;;0.20;;
76437;SDS011;65273;43.198;0.118;2023-04-25T10:19:19;0.20;;;0.20;;
76437;SDS011;65273;43.198;0.118;2023-04-25T10:21:50;0.20;;;0.20;;
76437;SDS011;65273;43.198;0.118;2023-04-25T10:24:19;0.20;;;0.20;;
76437;SDS011;65273;43.198;0.118;2023-04-25T10:26:44;1.77;;;0.25;;
76437;SDS011;65273;43.198;0.118;2023-04-25T10:29:11;0.10;;;0.10;;
76437;SDS011;65273;43.198;0.118;2023-04-25T10:31:46;0.20;;;0.20;;
76437;SDS011;65273;43.198;0.118;2023-04-25T10:34:15;0.30;;;0.30;;
76437;SDS011;65273;43.198;0.118;2023-04-25T10:36:41;0.20;;;0.20;;
76437;SDS011;65273;43.198;0.118;2023-04-25T10:39:07;0.80;;;0.30;;
76437;SDS011;65273;43.198;0.118;2023-04-25T10:41:52;1.55;;;0.20;;
76437;SDS011;65273;43.198;0.118;2023-04-25T10:44:20;0.10;;;0.10;;
76437;SDS011;65273;43.198;0.118;2023-04-25T10:46:45;0.80;;;0.17;;
76437;SDS011;65273;43.198;0.118;2023-04-25T10:49:11;0.20;;;0.20;;
76437;SDS011;65273;43.198;0.118;2023-04-25T10:52:10;0.50;;;0.22;;
76437;SDS011;65273;43.198;0.118;2023-04-25T10:54:48;1.75;;;0.22;;
76437;SDS011;65273;43.198;0.118;2023-04-25T11:00:11;0.20;;;0.20;;
76437;SDS011;65273;43.198;0.118;2023-04-25T11:02:46;0.20;;;0.20;;
76437;SDS011;65273;43.198;0.118;2023-04-25T11:05:22;0.20;;;0.20;;
76437;SDS011;65273;43.198;0.118;2023-04-25T11:07:52;0.63;;;0.20;;
76437;SDS011;65273;43.198;0.118;2023-04-25T11:10:21;1.00;;;0.20;;
76437;SDS011;65273;43.198;0.118;2023-04-25T11:12:50;0.30;;;0.30;;
76437;SDS011;65273;43.198;0.118;2023-04-25T11:15:16;2.47;;;0.30;;
76437;SDS011;65273;43.198;0.118;2023-04-25T11:17:41;0.25;;;0.10;;
76437;SDS011;65273;43.198;0.118;2023-04-25T11:20:08;0.73;;;0.40;;
76437;SDS011;65273;43.198;0.118;2023-04-25T11:22:37;0.93;;;0.30;;
76437;SDS011;65273;43.198;0.118;2023-04-25T11:25:05;0.47;;;0.30;;
76437;SDS011;65273;43.198;0.118;2023-04-25T11:27:31;0.40;;;0.20;;
76437;SDS011;65273;43.198;0.118;2023-04-25T11:29:57;1.98;;;0.40;;
76437;SDS011;65273;43.198;0.118;2023-04-25T11:32:23;0.95;;;0.45;;
76437;SDS011;65273;43.198;0.118;2023-04-25T11:34:48;2.65;;;0.55;;
76437;SDS011;65273;43.198;0.118;2023-04-25T11:37:13;0.22;;;0.22;;
76437;SDS011;65273;43.198;0.118;2023-04-25T11:39:42;0.52;;;0.10;;
76437;SDS011;65273;43.198;0.118;2023-04-25T11:42:07;0.85;;;0.20;;
76437;SDS011;65273;43.198;0.118;2023-04-25T11:44:33;0.20;;;0.20;;
76437;SDS011;65273;43.198;0.118;2023-04-25T11:46:59;0.20;;;0.20;;
76437;SDS011;65273;43.198;0.118;2023-04-25T11:49:25;0.45;;;0.20;;
76437;SDS011;65273;43.198;0.118;2023-04-25T11:51:55;0.30;;;0.30;;
76437;SDS011;65273;43.198;0.118;2023-04-25T11:54:21;0.22;;;0.22;;
76437;SDS011;65273;43.198;0.118;2023-04-25T11:56:47;0.40;;;0.35;;
76437;SDS011;65273;43.198;0.118;2023-04-25T11:59:14;0.30;;;0.30;;
76437;SDS011;65273;43.198;0.118;2023-04-25T12:01:47;1.02;;;0.40;;
76437;SDS011;65273;43.198;0.118;2023-04-25T12:06:44;1.17;;;0.25;;
76437;SDS011;65273;43.198;0.118;2023-04-25T12:09:15;0.47;;;0.30;;
76437;SDS011;65273;43.198;0.118;2023-04-25T12:11:44;0.30;;;0.30;;
76437;SDS011;65273;43.198;0.118;2023-04-25T12:14:11;0.43;;;0.32;;
76437;SDS011;65273;43.198;0.118;2023-04-25T12:16:46;1.63;;;0.20;;
76437;SDS011;65273;43.198;0.118;2023-04-25T12:19:19;0.40;;;0.40;;
76437;SDS011;65273;43.198;0.118;2023-04-25T12:21:45;2.10;;;0.30;;
76437;SDS011;65273;43.198;0.118;2023-04-25T12:26:45;0.35;;;0.35;;
76437;SDS011;65273;43.198;0.118;2023-04-25T12:29:24;0.77;;;0.40;;
76437;SDS011;65273;43.198;0.118;2023-04-25T12:31:52;0.50;;;0.50;;
76437;SDS011;65273;43.198;0.118;2023-04-25T12:34:20;0.38;;;0.38;;
76437;SDS011;65273;43.198;0.118;2023-04-25T12:36:46;1.83;;;0.30;;
76437;SDS011;65273;43.198;0.118;2023-04-25T12:39:21;0.20;;;0.20;;
76437;SDS011;65273;43.198;0.118;2023-04-25T12:41:51;0.43;;;0.22;;
76437;SDS011;65273;43.198;0.118;2023-04-25T12:44:20;0.13;;;0.13;;
76437;SDS011;65273;43.198;0.118;2023-04-25T12:46:46;0.17;;;0.17;;
76437;SDS011;65273;43.198;0.118;2023-04-25T12:49:13;0.10;;;0.10;;
76437;SDS011;65273;43.198;0.118;2023-04-25T12:51:39;0.20;;;0.20;;
76437;SDS011;65273;43.198;0.118;2023-04-25T12:54:09;0.40;;;0.15;;
76437;SDS011;65273;43.198;0.118;2023-04-25T12:56:37;1.17;;;0.20;;
76437;SDS011;65273;43.198;0.118;2023-04-25T12:59:03;0.32;;;0.20;;
76437;SDS011;65273;43.198;0.118;2023-04-25T13:01:29;0.20;;;0.20;;
76437;SDS011;65273;43.198;0.118;2023-04-25T13:03:56;0.52;;;0.28;;
76437;SDS011;65273;43.198;0.118;2023-04-25T13:06:22;0.10;;;0.10;;
76437;SDS011;65273;43.198;0.118;2023-04-25T13:08:49;0.10;;;0.10;;
76437;SDS011;65273;43.198;0.118;2023-04-25T13:11:16;0.10;;;0.10;;
76437;SDS011;65273;43.198;0.118;2023-04-25T13:13:43;0.15;;;0.15;;
76437;SDS011;65273;43.198;0.118;2023-04-25T13:16:10;0.20;;;0.20;;
76437;SDS011;65273;43.198;0.118;2023-04-25T13:18:39;0.13;;;0.13;;
76437;SDS011;65273;43.198;0.118;2023-04-25T13:21:07;0.20;;;0.20;;
76437;SDS011;65273;43.198;0.118;2023-04-25T13:23:39;0.30;;;0.10;;
76437;SDS011;65273;43.198;0.118;2023-04-25T13:26:08;0.20;;;0.20;;
76437;SDS011;65273;43.198;0.118;2023-04-25T13:28:35;0.10;;;0.10;;
76437;SDS011;65273;43.198;0.118;2023-04-25T13:31:01;0.20;;;0.20;;
76437;SDS011;65273;43.198;0.118;2023-04-25T13:33:28;0.10;;;0.10;;
76437;SDS011;65273;43.198;0.118;2023-04-25T13:35:58;0.10;;;0.10;;
76437;SDS011;65273;43.198;0.118;2023-04-25T13:38:26;0.25;;;0.25;;
76437;SDS011;65273;43.198;0.118;2023-04-25T13:40:53;0.15;;;0.15;;
76437;SDS011;65273;43.198;0.118;2023-04-25T13:43:21;0.30;;;0.20;;
76437;SDS011;65273;43.198;0.118;2023-04-25T13:45:49;0.20;;;0.20;;
76437;SDS011;65273;43.198;0.118;2023-04-25T13:48:16;2.08;;;0.30;;
76437;SDS011;65273;43.198;0.118;2023-04-25T13:50:43;0.57;;;0.57;;
76437;SDS011;65273;43.198;0.118;2023-04-25T13:53:10;2.50;;;0.30;;
76437;SDS011;65273;43.198;0.118;2023-04-25T13:55:37;0.20;;;0.20;;
76437;SDS011;65273;43.198;0.118;2023-04-25T13:58:05;0.38;;;0.30;;
76437;SDS011;65273;43.198;0.118;2023-04-25T14:00:35;3.17;;;0.30;;
76437;SDS011;65273;43.198;0.118;2023-04-25T14:03:04;0.22;;;0.22;;
76437;SDS011;65273;43.198;0.118;2023-04-25T14:05:32;0.10;;;0.10;;
76437;SDS011;65273;43.198;0.118;2023-04-25T14:08:06;0.22;;;0.22;;
76437;SDS011;65273;43.198;0.118;2023-04-25T14:10:37;0.95;;;0.30;;
76437;SDS011;65273;43.198;0.118;2023-04-25T14:13:04;0.52;;;0.30;;
76437;SDS011;65273;43.198;0.118;2023-04-25T14:15:34;0.40;;;0.30;;
76437;SDS011;65273;43.198;0.118;2023-04-25T14:18:00;0.28;;;0.28;;
76437;SDS011;65273;43.198;0.118;2023-04-25T14:20:35;0.77;;;0.50;;
76437;SDS011;65273;43.198;0.118;2023-04-25T14:23:02;1.38;;;0.30;;
76437;SDS011;65273;43.198;0.118;2023-04-25T14:25:29;0.30;;;0.30;;
76437;SDS011;65273;43.198;0.118;2023-04-25T14:27:56;1.33;;;0.47;;
76437;SDS011;65273;43.198;0.118;2023-04-25T14:30:22;0.30;;;0.30;;
76437;SDS011;65273;43.198;0.118;2023-04-25T14:32:49;0.40;;;0.40;;
76437;SDS011;65273;43.198;0.118;2023-04-25T14:35:17;0.52;;;0.38;;
76437;SDS011;65273;43.198;0.118;2023-04-25T14:37:47;1.30;;;0.40;;
76437;SDS011;65273;43.198;0.118;2023-04-25T14:40:14;0.30;;;0.30;;
76437;SDS011;65273;43.198;0.118;2023-04-25T14:42:42;0.40;;;0.40;;
76437;SDS011;65273;43.198;0.118;2023-04-25T14:45:13;0.93;;;0.40;;
76437;SDS011;65273;43.198;0.118;2023-04-25T14:47:39;0.32;;;0.32;;
76437;SDS011;65273;43.198;0.118;2023-04-25T14:50:06;0.52;;;0.52;;
76437;SDS011;65273;43.198;0.118;2023-04-25T14:52:34;1.08;;;0.50;;
76437;SDS011;65273;43.198;0.118;2023-04-25T14:55:01;0.90;;;0.57;;
76437;SDS011;65273;43.198;0.118;2023-04-25T14:57:31;0.40;;;0.40;;